sensor_id;sensor_type;location;lat;lon;timestamp;P1;durP1;ratioP1;P2;durP2;ratioP2
5117;SDS011;2578;51.622;7.046;2023-02-01T00:01:17;6.90;;;4.10;;
5117;SDS011;2578;51.622;7.046;2023-02-01T00:03:42;4.00;;;3.17;;
5117;SDS011;2578;51.622;7.046;2023-02-01T00:06:08;5.67;;;3.20;;
5117;SDS011;2578;51.622;7.046;2023-02-01T00:08:34;6.67;;;4.53;;
5117;SDS011;2578;51.622;7.046;2023-02-01T00:11:01;9.00;;;3.57;;
5117;SDS011;2578;51.622;7.046;2023-02-01T00:13:31;10.13;;;2.87;;
5117;SDS011;2578;51.622;7.046;2023-02-01T00:16:02;10.90;;;6.53;;
5117;SDS011;2578;51.622;7.046;2023-02-01T00:18:33;4.30;;;2.70;;
5117;SDS011;2578;51.622;7.046;2023-02-01T00:20:58;3.20;;;1.87;;
5117;SDS011;2578;51.622;7.046;2023-02-01T00:23:25;32.33;;;5.20;;
5117;SDS011;2578;51.622;7.046;2023-02-01T00:25:50;4.03;;;2.30;;
5117;SDS011;2578;51.622;7.046;2023-02-01T00:28:16;6.80;;;3.43;;
5117;SDS011;2578;51.622;7.046;2023-02-01T00:30:42;3.30;;;2.33;;
5117;SDS011;2578;51.622;7.046;2023-02-01T00:33:07;6.43;;;4.33;;
5117;SDS011;2578;51.622;7.046;2023-02-01T00:35:33;10.93;;;3.43;;
5117;SDS011;2578;51.622;7.046;2023-02-01T00:38:00;4.03;;;2.37;;
5117;SDS011;2578;51.622;7.046;2023-02-01T00:40:26;5.20;;;2.83;;
5117;SDS011;2578;51.622;7.046;2023-02-01T00:42:51;7.30;;;2.57;;
5117;SDS011;2578;51.622;7.046;2023-02-01T00:45:17;6.40;;;4.40;;
5117;SDS011;2578;51.622;7.046;2023-02-01T00:47:43;7.23;;;4.50;;
5117;SDS011;2578;51.622;7.046;2023-02-01T00:50:09;7.30;;;4.50;;
5117;SDS011;2578;51.622;7.046;2023-02-01T00:52:35;4.30;;;3.10;;
5117;SDS011;2578;51.622;7.046;2023-02-01T00:55:00;5.30;;;3.43;;
5117;SDS011;2578;51.622;7.046;2023-02-01T00:57:26;4.03;;;3.10;;
5117;SDS011;2578;51.622;7.046;2023-02-01T00:59:52;3.50;;;2.73;;
5117;SDS011;2578;51.622;7.046;2023-02-01T01:02:17;9.93;;;3.50;;
5117;SDS011;2578;51.622;7.046;2023-02-01T01:04:43;3.40;;;2.90;;
5117;SDS011;2578;51.622;7.046;2023-02-01T01:07:08;5.10;;;4.60;;
5117;SDS011;2578;51.622;7.046;2023-02-01T01:09:34;5.90;;;4.87;;
5117;SDS011;2578;51.622;7.046;2023-02-01T01:12:00;6.33;;;4.50;;
5117;SDS011;2578;51.622;7.046;2023-02-01T01:14:28;3.70;;;2.97;;
5117;SDS011;2578;51.622;7.046;2023-02-01T01:16:54;3.50;;;3.07;;
5117;SDS011;2578;51.622;7.046;2023-02-01T01:19:19;5.60;;;4.00;;
5117;SDS011;2578;51.622;7.046;2023-02-01T01:21:45;3.47;;;3.17;;
5117;SDS011;2578;51.622;7.046;2023-02-01T01:24:11;6.03;;;4.20;;
5117;SDS011;2578;51.622;7.046;2023-02-01T01:26:36;4.83;;;4.33;;
5117;SDS011;2578;51.622;7.046;2023-02-01T01:29:02;5.50;;;4.07;;
5117;SDS011;2578;51.622;7.046;2023-02-01T01:31:29;4.27;;;3.50;;
5117;SDS011;2578;51.622;7.046;2023-02-01T01:33:56;13.30;;;5.70;;
5117;SDS011;2578;51.622;7.046;2023-02-01T01:36:24;5.63;;;3.27;;
5117;SDS011;2578;51.622;7.046;2023-02-01T01:38:50;3.60;;;2.90;;
5117;SDS011;2578;51.622;7.046;2023-02-01T01:41:17;5.50;;;4.13;;
5117;SDS011;2578;51.622;7.046;2023-02-01T01:43:53;7.33;;;4.00;;
5117;SDS011;2578;51.622;7.046;2023-02-01T01:46:42;13.10;;;4.27;;
5117;SDS011;2578;51.622;7.046;2023-02-01T01:49:09;3.50;;;3.00;;
5117;SDS011;2578;51.622;7.046;2023-02-01T01:52:00;10.00;;;4.10;;
5117;SDS011;2578;51.622;7.046;2023-02-01T01:54:30;6.63;;;4.40;;
5117;SDS011;2578;51.622;7.046;2023-02-01T01:57:09;3.50;;;2.57;;
5117;SDS011;2578;51.622;7.046;2023-02-01T01:59:40;6.70;;;3.13;;
5117;SDS011;2578;51.622;7.046;2023-02-01T02:02:07;4.33;;;2.50;;
5117;SDS011;2578;51.622;7.046;2023-02-01T02:04:34;5.97;;;4.03;;
5117;SDS011;2578;51.622;7.046;2023-02-01T02:07:03;4.33;;;2.77;;
5117;SDS011;2578;51.622;7.046;2023-02-01T02:09:30;6.40;;;3.47;;
5117;SDS011;2578;51.622;7.046;2023-02-01T02:11:55;13.47;;;7.80;;
5117;SDS011;2578;51.622;7.046;2023-02-01T02:14:22;15.03;;;4.87;;
5117;SDS011;2578;51.622;7.046;2023-02-01T02:16:57;7.00;;;4.23;;
5117;SDS011;2578;51.622;7.046;2023-02-01T02:19:48;5.47;;;3.07;;
5117;SDS011;2578;51.622;7.046;2023-02-01T02:28:25;4.77;;;3.30;;
5117;SDS011;2578;51.622;7.046;2023-02-01T02:31:34;5.40;;;4.20;;
5117;SDS011;2578;51.622;7.046;2023-02-01T02:42:29;7.63;;;5.60;;
5117;SDS011;2578;51.622;7.046;2023-02-01T02:45:22;13.57;;;4.80;;
5117;SDS011;2578;51.622;7.046;2023-02-01T02:51:20;5.20;;;4.20;;
5117;SDS011;2578;51.622;7.046;2023-02-01T02:54:24;4.37;;;3.93;;
5117;SDS011;2578;51.622;7.046;2023-02-01T02:57:13;8.90;;;3.70;;
5117;SDS011;2578;51.622;7.046;2023-02-01T03:00:03;8.57;;;4.10;;
5117;SDS011;2578;51.622;7.046;2023-02-01T03:02:50;3.40;;;2.80;;
5117;SDS011;2578;51.622;7.046;2023-02-01T03:05:36;15.20;;;4.90;;
5117;SDS011;2578;51.622;7.046;2023-02-01T03:08:15;9.73;;;4.47;;
5117;SDS011;2578;51.622;7.046;2023-02-01T03:10:50;3.90;;;3.50;;
5117;SDS011;2578;51.622;7.046;2023-02-01T03:13:28;5.20;;;4.07;;
5117;SDS011;2578;51.622;7.046;2023-02-01T03:18:49;3.63;;;3.33;;
5117;SDS011;2578;51.622;7.046;2023-02-01T03:21:21;9.10;;;5.60;;
5117;SDS011;2578;51.622;7.046;2023-02-01T03:24:07;3.70;;;3.40;;
5117;SDS011;2578;51.622;7.046;2023-02-01T03:26:37;5.00;;;3.97;;
5117;SDS011;2578;51.622;7.046;2023-02-01T03:29:13;4.00;;;3.60;;
5117;SDS011;2578;51.622;7.046;2023-02-01T03:31:42;3.57;;;3.27;;
5117;SDS011;2578;51.622;7.046;2023-02-01T03:34:09;16.73;;;6.47;;
5117;SDS011;2578;51.622;7.046;2023-02-01T03:36:39;3.97;;;3.57;;
5117;SDS011;2578;51.622;7.046;2023-02-01T03:39:11;13.37;;;6.00;;
5117;SDS011;2578;51.622;7.046;2023-02-01T03:41:47;3.70;;;3.40;;
5117;SDS011;2578;51.622;7.046;2023-02-01T03:44:35;4.63;;;3.70;;
5117;SDS011;2578;51.622;7.046;2023-02-01T03:47:12;4.63;;;3.93;;
5117;SDS011;2578;51.622;7.046;2023-02-01T03:49:42;7.37;;;3.70;;
5117;SDS011;2578;51.622;7.046;2023-02-01T03:55:05;8.50;;;4.90;;
5117;SDS011;2578;51.622;7.046;2023-02-01T03:57:32;11.53;;;5.50;;
5117;SDS011;2578;51.622;7.046;2023-02-01T04:00:08;17.83;;;5.53;;
5117;SDS011;2578;51.622;7.046;2023-02-01T04:02:41;16.63;;;5.57;;
5117;SDS011;2578;51.622;7.046;2023-02-01T04:05:07;6.13;;;3.93;;
5117;SDS011;2578;51.622;7.046;2023-02-01T04:07:32;6.03;;;3.50;;
5117;SDS011;2578;51.622;7.046;2023-02-01T04:09:58;3.13;;;2.40;;
5117;SDS011;2578;51.622;7.046;2023-02-01T04:12:24;8.40;;;3.40;;
5117;SDS011;2578;51.622;7.046;2023-02-01T04:14:49;6.23;;;3.67;;
5117;SDS011;2578;51.622;7.046;2023-02-01T04:17:15;19.83;;;3.53;;
5117;SDS011;2578;51.622;7.046;2023-02-01T04:19:40;6.60;;;3.17;;
5117;SDS011;2578;51.622;7.046;2023-02-01T04:22:06;6.27;;;3.37;;
5117;SDS011;2578;51.622;7.046;2023-02-01T04:24:31;16.17;;;3.83;;
5117;SDS011;2578;51.622;7.046;2023-02-01T04:26:57;3.70;;;2.57;;
5117;SDS011;2578;51.622;7.046;2023-02-01T04:29:23;4.93;;;2.77;;
5117;SDS011;2578;51.622;7.046;2023-02-01T04:31:48;6.80;;;2.90;;
5117;SDS011;2578;51.622;7.046;2023-02-01T04:34:14;4.80;;;3.00;;
5117;SDS011;2578;51.622;7.046;2023-02-01T04:36:40;19.73;;;5.60;;
5117;SDS011;2578;51.622;7.046;2023-02-01T04:39:05;4.17;;;2.47;;
5117;SDS011;2578;51.622;7.046;2023-02-01T04:41:31;8.37;;;2.50;;
5117;SDS011;2578;51.622;7.046;2023-02-01T04:43:56;4.57;;;2.07;;
5117;SDS011;2578;51.622;7.046;2023-02-01T04:46:22;16.10;;;2.90;;
5117;SDS011;2578;51.622;7.046;2023-02-01T04:48:48;9.77;;;2.73;;
5117;SDS011;2578;51.622;7.046;2023-02-01T04:51:13;9.17;;;4.37;;
5117;SDS011;2578;51.622;7.046;2023-02-01T04:53:40;14.83;;;4.20;;
5117;SDS011;2578;51.622;7.046;2023-02-01T04:56:06;24.07;;;3.83;;
5117;SDS011;2578;51.622;7.046;2023-02-01T04:58:32;3.40;;;1.80;;
5117;SDS011;2578;51.622;7.046;2023-02-01T05:00:58;11.23;;;4.50;;
5117;SDS011;2578;51.622;7.046;2023-02-01T05:03:24;4.60;;;2.70;;
5117;SDS011;2578;51.622;7.046;2023-02-01T05:05:49;6.90;;;4.30;;
5117;SDS011;2578;51.622;7.046;2023-02-01T05:08:15;4.80;;;2.60;;
5117;SDS011;2578;51.622;7.046;2023-02-01T05:10:41;7.27;;;2.87;;
5117;SDS011;2578;51.622;7.046;2023-02-01T05:13:07;14.10;;;5.03;;
5117;SDS011;2578;51.622;7.046;2023-02-01T05:15:52;3.40;;;3.10;;
5117;SDS011;2578;51.622;7.046;2023-02-01T05:18:18;4.40;;;3.30;;
5117;SDS011;2578;51.622;7.046;2023-02-01T05:20:43;3.77;;;2.80;;
5117;SDS011;2578;51.622;7.046;2023-02-01T05:23:09;15.00;;;5.00;;
5117;SDS011;2578;51.622;7.046;2023-02-01T05:25:34;6.63;;;3.93;;
5117;SDS011;2578;51.622;7.046;2023-02-01T05:28:00;3.80;;;2.90;;
5117;SDS011;2578;51.622;7.046;2023-02-01T05:30:26;5.20;;;3.13;;
5117;SDS011;2578;51.622;7.046;2023-02-01T05:32:52;11.43;;;2.90;;
5117;SDS011;2578;51.622;7.046;2023-02-01T05:35:18;5.30;;;2.80;;
5117;SDS011;2578;51.622;7.046;2023-02-01T05:37:44;3.97;;;2.80;;
5117;SDS011;2578;51.622;7.046;2023-02-01T05:40:10;10.77;;;3.03;;
5117;SDS011;2578;51.622;7.046;2023-02-01T05:42:36;5.60;;;3.77;;
5117;SDS011;2578;51.622;7.046;2023-02-01T05:45:01;6.23;;;2.90;;
5117;SDS011;2578;51.622;7.046;2023-02-01T05:47:27;5.43;;;2.77;;
5117;SDS011;2578;51.622;7.046;2023-02-01T05:49:53;35.03;;;5.13;;
5117;SDS011;2578;51.622;7.046;2023-02-01T05:52:18;10.30;;;3.70;;
5117;SDS011;2578;51.622;7.046;2023-02-01T05:54:45;4.73;;;3.13;;
5117;SDS011;2578;51.622;7.046;2023-02-01T05:57:12;13.10;;;3.83;;
5117;SDS011;2578;51.622;7.046;2023-02-01T05:59:38;9.37;;;3.57;;
5117;SDS011;2578;51.622;7.046;2023-02-01T06:02:06;11.57;;;2.40;;
5117;SDS011;2578;51.622;7.046;2023-02-01T06:04:32;7.30;;;2.47;;
5117;SDS011;2578;51.622;7.046;2023-02-01T06:06:58;9.63;;;3.63;;
5117;SDS011;2578;51.622;7.046;2023-02-01T06:09:23;10.10;;;3.17;;
5117;SDS011;2578;51.622;7.046;2023-02-01T06:11:49;4.80;;;2.73;;
5117;SDS011;2578;51.622;7.046;2023-02-01T06:14:14;3.60;;;2.50;;
5117;SDS011;2578;51.622;7.046;2023-02-01T06:16:40;7.23;;;2.97;;
5117;SDS011;2578;51.622;7.046;2023-02-01T06:19:06;5.50;;;2.73;;
5117;SDS011;2578;51.622;7.046;2023-02-01T06:21:31;11.73;;;4.47;;
5117;SDS011;2578;51.622;7.046;2023-02-01T06:23:58;7.40;;;3.40;;
5117;SDS011;2578;51.622;7.046;2023-02-01T06:26:24;16.00;;;5.37;;
5117;SDS011;2578;51.622;7.046;2023-02-01T06:28:49;3.57;;;2.20;;
5117;SDS011;2578;51.622;7.046;2023-02-01T06:31:15;4.30;;;2.90;;
5117;SDS011;2578;51.622;7.046;2023-02-01T06:33:41;11.73;;;4.80;;
5117;SDS011;2578;51.622;7.046;2023-02-01T06:36:07;8.43;;;3.80;;
5117;SDS011;2578;51.622;7.046;2023-02-01T06:38:35;9.63;;;4.60;;
5117;SDS011;2578;51.622;7.046;2023-02-01T06:41:01;3.10;;;2.17;;
5117;SDS011;2578;51.622;7.046;2023-02-01T06:43:28;11.60;;;4.40;;
5117;SDS011;2578;51.622;7.046;2023-02-01T06:45:59;10.80;;;4.20;;
5117;SDS011;2578;51.622;7.046;2023-02-01T06:48:26;12.27;;;6.63;;
5117;SDS011;2578;51.622;7.046;2023-02-01T06:50:52;10.27;;;4.00;;
5117;SDS011;2578;51.622;7.046;2023-02-01T06:53:17;3.03;;;2.20;;
5117;SDS011;2578;51.622;7.046;2023-02-01T06:55:51;17.03;;;3.10;;
5117;SDS011;2578;51.622;7.046;2023-02-01T06:58:30;13.17;;;3.03;;
5117;SDS011;2578;51.622;7.046;2023-02-01T07:00:57;5.10;;;3.50;;
5117;SDS011;2578;51.622;7.046;2023-02-01T07:03:23;16.33;;;5.00;;
5117;SDS011;2578;51.622;7.046;2023-02-01T07:05:49;8.93;;;3.20;;
5117;SDS011;2578;51.622;7.046;2023-02-01T07:08:14;8.50;;;3.37;;
5117;SDS011;2578;51.622;7.046;2023-02-01T07:10:40;13.30;;;4.77;;
5117;SDS011;2578;51.622;7.046;2023-02-01T07:13:06;6.47;;;2.80;;
5117;SDS011;2578;51.622;7.046;2023-02-01T07:15:31;3.20;;;2.33;;
5117;SDS011;2578;51.622;7.046;2023-02-01T07:17:57;9.27;;;4.17;;
5117;SDS011;2578;51.622;7.046;2023-02-01T07:20:23;9.33;;;3.13;;
5117;SDS011;2578;51.622;7.046;2023-02-01T07:22:49;6.07;;;3.50;;
5117;SDS011;2578;51.622;7.046;2023-02-01T07:25:20;12.50;;;5.67;;
5117;SDS011;2578;51.622;7.046;2023-02-01T07:27:46;4.13;;;3.17;;
5117;SDS011;2578;51.622;7.046;2023-02-01T07:30:11;10.00;;;3.70;;
5117;SDS011;2578;51.622;7.046;2023-02-01T07:32:37;8.13;;;3.40;;
5117;SDS011;2578;51.622;7.046;2023-02-01T07:35:03;8.83;;;4.20;;
5117;SDS011;2578;51.622;7.046;2023-02-01T07:37:29;14.13;;;4.87;;
5117;SDS011;2578;51.622;7.046;2023-02-01T07:39:55;10.73;;;4.20;;
5117;SDS011;2578;51.622;7.046;2023-02-01T07:42:21;5.90;;;3.23;;
5117;SDS011;2578;51.622;7.046;2023-02-01T07:44:46;5.90;;;3.90;;
5117;SDS011;2578;51.622;7.046;2023-02-01T07:47:12;12.47;;;5.37;;
5117;SDS011;2578;51.622;7.046;2023-02-01T07:49:38;6.57;;;3.90;;
5117;SDS011;2578;51.622;7.046;2023-02-01T07:52:03;19.40;;;4.13;;
5117;SDS011;2578;51.622;7.046;2023-02-01T07:54:29;4.17;;;2.83;;
5117;SDS011;2578;51.622;7.046;2023-02-01T07:56:54;6.60;;;3.27;;
5117;SDS011;2578;51.622;7.046;2023-02-01T07:59:20;5.83;;;3.30;;
5117;SDS011;2578;51.622;7.046;2023-02-01T08:01:46;11.97;;;3.97;;
5117;SDS011;2578;51.622;7.046;2023-02-01T08:04:12;4.63;;;4.00;;
5117;SDS011;2578;51.622;7.046;2023-02-01T08:06:38;2.90;;;1.90;;
5117;SDS011;2578;51.622;7.046;2023-02-01T08:09:04;7.20;;;2.70;;
5117;SDS011;2578;51.622;7.046;2023-02-01T08:11:32;7.13;;;2.97;;
5117;SDS011;2578;51.622;7.046;2023-02-01T08:13:58;4.77;;;3.33;;
5117;SDS011;2578;51.622;7.046;2023-02-01T08:16:24;7.43;;;4.70;;
5117;SDS011;2578;51.622;7.046;2023-02-01T08:18:50;8.30;;;3.10;;
5117;SDS011;2578;51.622;7.046;2023-02-01T08:21:17;23.03;;;4.60;;
5117;SDS011;2578;51.622;7.046;2023-02-01T08:24:02;9.10;;;4.00;;
5117;SDS011;2578;51.622;7.046;2023-02-01T08:26:29;6.27;;;3.17;;
5117;SDS011;2578;51.622;7.046;2023-02-01T08:28:55;12.77;;;4.57;;
5117;SDS011;2578;51.622;7.046;2023-02-01T08:31:25;5.40;;;3.30;;
5117;SDS011;2578;51.622;7.046;2023-02-01T08:33:54;4.93;;;3.30;;
5117;SDS011;2578;51.622;7.046;2023-02-01T08:36:22;19.77;;;3.70;;
5117;SDS011;2578;51.622;7.046;2023-02-01T08:38:49;4.50;;;2.60;;
5117;SDS011;2578;51.622;7.046;2023-02-01T08:41:16;6.23;;;2.90;;
5117;SDS011;2578;51.622;7.046;2023-02-01T08:43:44;6.90;;;3.93;;
5117;SDS011;2578;51.622;7.046;2023-02-01T08:46:10;4.07;;;3.33;;
5117;SDS011;2578;51.622;7.046;2023-02-01T08:48:36;2.97;;;1.80;;
5117;SDS011;2578;51.622;7.046;2023-02-01T08:51:07;4.43;;;2.60;;
5117;SDS011;2578;51.622;7.046;2023-02-01T08:53:34;8.00;;;3.23;;
5117;SDS011;2578;51.622;7.046;2023-02-01T08:56:01;6.80;;;3.50;;
5117;SDS011;2578;51.622;7.046;2023-02-01T08:58:27;8.40;;;3.40;;
5117;SDS011;2578;51.622;7.046;2023-02-01T09:00:53;9.60;;;2.53;;
5117;SDS011;2578;51.622;7.046;2023-02-01T09:03:18;4.87;;;2.90;;
5117;SDS011;2578;51.622;7.046;2023-02-01T09:05:44;10.50;;;4.20;;
5117;SDS011;2578;51.622;7.046;2023-02-01T09:08:10;4.43;;;2.00;;
5117;SDS011;2578;51.622;7.046;2023-02-01T09:10:39;3.30;;;2.20;;
5117;SDS011;2578;51.622;7.046;2023-02-01T09:13:06;8.40;;;4.13;;
5117;SDS011;2578;51.622;7.046;2023-02-01T09:15:32;5.03;;;2.80;;
5117;SDS011;2578;51.622;7.046;2023-02-01T09:17:58;5.07;;;3.30;;
5117;SDS011;2578;51.622;7.046;2023-02-01T09:20:24;15.23;;;4.70;;
5117;SDS011;2578;51.622;7.046;2023-02-01T09:22:51;4.83;;;2.73;;
5117;SDS011;2578;51.622;7.046;2023-02-01T09:25:17;5.70;;;2.60;;
5117;SDS011;2578;51.622;7.046;2023-02-01T09:27:43;3.80;;;2.50;;
5117;SDS011;2578;51.622;7.046;2023-02-01T09:30:09;3.00;;;1.80;;
5117;SDS011;2578;51.622;7.046;2023-02-01T09:32:35;7.57;;;3.50;;
5117;SDS011;2578;51.622;7.046;2023-02-01T09:35:01;16.60;;;5.10;;
5117;SDS011;2578;51.622;7.046;2023-02-01T09:37:27;3.60;;;2.40;;
5117;SDS011;2578;51.622;7.046;2023-02-01T09:39:52;18.20;;;5.30;;
5117;SDS011;2578;51.622;7.046;2023-02-01T09:48:28;7.70;;;4.37;;
5117;SDS011;2578;51.622;7.046;2023-02-01T09:50:57;6.80;;;3.90;;
5117;SDS011;2578;51.622;7.046;2023-02-01T09:53:28;5.40;;;3.73;;
5117;SDS011;2578;51.622;7.046;2023-02-01T09:58:47;3.97;;;3.17;;
5117;SDS011;2578;51.622;7.046;2023-02-01T10:01:26;9.83;;;3.97;;
5117;SDS011;2578;51.622;7.046;2023-02-01T10:04:05;3.30;;;2.37;;
5117;SDS011;2578;51.622;7.046;2023-02-01T10:06:41;12.00;;;4.57;;
5117;SDS011;2578;51.622;7.046;2023-02-01T10:09:28;8.43;;;3.30;;
5117;SDS011;2578;51.622;7.046;2023-02-01T10:26:25;8.00;;;4.13;;
5117;SDS011;2578;51.622;7.046;2023-02-01T10:28:56;7.77;;;2.63;;
5117;SDS011;2578;51.622;7.046;2023-02-01T10:31:25;4.77;;;2.30;;
5117;SDS011;2578;51.622;7.046;2023-02-01T10:34:01;3.20;;;2.20;;
5117;SDS011;2578;51.622;7.046;2023-02-01T10:36:42;6.70;;;2.53;;
5117;SDS011;2578;51.622;7.046;2023-02-01T10:39:17;13.33;;;4.10;;
5117;SDS011;2578;51.622;7.046;2023-02-01T10:41:43;5.07;;;3.33;;
5117;SDS011;2578;51.622;7.046;2023-02-01T10:44:13;8.83;;;4.10;;
5117;SDS011;2578;51.622;7.046;2023-02-01T10:46:41;4.47;;;3.70;;
5117;SDS011;2578;51.622;7.046;2023-02-01T10:49:09;5.77;;;3.90;;
5117;SDS011;2578;51.622;7.046;2023-02-01T10:52:01;8.13;;;3.83;;
5117;SDS011;2578;51.622;7.046;2023-02-01T10:54:35;7.67;;;2.97;;
5117;SDS011;2578;51.622;7.046;2023-02-01T10:57:03;12.97;;;3.73;;
5117;SDS011;2578;51.622;7.046;2023-02-01T10:59:34;4.10;;;2.80;;
5117;SDS011;2578;51.622;7.046;2023-02-01T11:02:02;4.93;;;3.27;;
5117;SDS011;2578;51.622;7.046;2023-02-01T11:04:40;17.40;;;3.60;;
5117;SDS011;2578;51.622;7.046;2023-02-01T11:09:48;3.10;;;2.20;;
5117;SDS011;2578;51.622;7.046;2023-02-01T11:12:35;5.73;;;4.20;;
5117;SDS011;2578;51.622;7.046;2023-02-01T11:17:39;5.23;;;3.27;;
5117;SDS011;2578;51.622;7.046;2023-02-01T11:20:15;4.73;;;3.20;;
5117;SDS011;2578;51.622;7.046;2023-02-01T11:22:48;6.93;;;3.67;;
5117;SDS011;2578;51.622;7.046;2023-02-01T11:25:18;8.20;;;4.53;;
5117;SDS011;2578;51.622;7.046;2023-02-01T11:27:44;16.53;;;5.03;;
5117;SDS011;2578;51.622;7.046;2023-02-01T11:30:14;5.63;;;3.60;;
5117;SDS011;2578;51.622;7.046;2023-02-01T11:32:52;21.23;;;3.47;;
5117;SDS011;2578;51.622;7.046;2023-02-01T11:35:19;14.20;;;4.27;;
5117;SDS011;2578;51.622;7.046;2023-02-01T11:37:48;11.77;;;4.60;;
5117;SDS011;2578;51.622;7.046;2023-02-01T11:43:22;8.90;;;5.20;;
5117;SDS011;2578;51.622;7.046;2023-02-01T11:48:26;6.20;;;5.70;;
5117;SDS011;2578;51.622;7.046;2023-02-01T11:55:58;9.23;;;7.10;;
5117;SDS011;2578;51.622;7.046;2023-02-01T12:33:42;6.60;;;6.00;;
5117;SDS011;2578;51.622;7.046;2023-02-01T12:41:52;8.90;;;8.03;;
5117;SDS011;2578;51.622;7.046;2023-02-01T12:44:31;9.43;;;7.80;;
5117;SDS011;2578;51.622;7.046;2023-02-01T12:53:06;8.43;;;7.70;;
5117;SDS011;2578;51.622;7.046;2023-02-01T12:58:03;15.23;;;9.73;;
5117;SDS011;2578;51.622;7.046;2023-02-01T13:00:45;8.73;;;7.97;;
5117;SDS011;2578;51.622;7.046;2023-02-01T13:06:17;49.57;;;8.80;;
5117;SDS011;2578;51.622;7.046;2023-02-01T13:11:19;7.43;;;6.73;;
5117;SDS011;2578;51.622;7.046;2023-02-01T13:14:07;11.13;;;7.40;;
5117;SDS011;2578;51.622;7.046;2023-02-01T13:16:59;6.77;;;6.07;;
5117;SDS011;2578;51.622;7.046;2023-02-01T13:22:58;12.47;;;7.27;;
5117;SDS011;2578;51.622;7.046;2023-02-01T13:28:12;5.90;;;5.40;;
5117;SDS011;2578;51.622;7.046;2023-02-01T13:36:27;10.90;;;7.93;;
5117;SDS011;2578;51.622;7.046;2023-02-01T13:41:58;14.60;;;7.10;;
5117;SDS011;2578;51.622;7.046;2023-02-01T13:44:44;13.73;;;7.17;;
5117;SDS011;2578;51.622;7.046;2023-02-01T13:49:58;12.20;;;6.73;;
5117;SDS011;2578;51.622;7.046;2023-02-01T13:52:43;14.37;;;6.53;;
5117;SDS011;2578;51.622;7.046;2023-02-01T13:57:45;5.70;;;5.20;;
5117;SDS011;2578;51.622;7.046;2023-02-01T14:00:32;14.60;;;8.00;;
5117;SDS011;2578;51.622;7.046;2023-02-01T14:13:40;10.43;;;7.63;;
5117;SDS011;2578;51.622;7.046;2023-02-01T14:16:13;13.20;;;9.13;;
5117;SDS011;2578;51.622;7.046;2023-02-01T14:26:45;8.10;;;6.63;;
5117;SDS011;2578;51.622;7.046;2023-02-01T14:42:28;17.03;;;6.80;;
5117;SDS011;2578;51.622;7.046;2023-02-01T14:47:49;10.70;;;7.93;;
5117;SDS011;2578;51.622;7.046;2023-02-01T14:55:41;6.33;;;5.80;;
5117;SDS011;2578;51.622;7.046;2023-02-01T15:04:10;21.47;;;8.80;;
5117;SDS011;2578;51.622;7.046;2023-02-01T15:14:35;9.30;;;7.77;;
5117;SDS011;2578;51.622;7.046;2023-02-01T15:17:23;9.77;;;7.80;;
5117;SDS011;2578;51.622;7.046;2023-02-01T15:19:56;7.33;;;6.17;;
5117;SDS011;2578;51.622;7.046;2023-02-01T15:22:23;7.73;;;6.77;;
5117;SDS011;2578;51.622;7.046;2023-02-01T15:24:52;16.40;;;9.17;;
5117;SDS011;2578;51.622;7.046;2023-02-01T15:27:19;14.87;;;8.83;;
5117;SDS011;2578;51.622;7.046;2023-02-01T15:29:44;7.03;;;6.40;;
5117;SDS011;2578;51.622;7.046;2023-02-01T15:34:56;15.13;;;8.40;;
5117;SDS011;2578;51.622;7.046;2023-02-01T15:37:22;8.10;;;6.63;;
5117;SDS011;2578;51.622;7.046;2023-02-01T15:40:04;6.70;;;6.17;;
5117;SDS011;2578;51.622;7.046;2023-02-01T15:42:41;16.17;;;8.03;;
5117;SDS011;2578;51.622;7.046;2023-02-01T15:45:21;12.63;;;7.60;;
5117;SDS011;2578;51.622;7.046;2023-02-01T15:47:50;14.93;;;7.57;;
5117;SDS011;2578;51.622;7.046;2023-02-01T15:50:18;9.47;;;8.57;;
5117;SDS011;2578;51.622;7.046;2023-02-01T15:52:46;11.43;;;8.93;;
5117;SDS011;2578;51.622;7.046;2023-02-01T15:55:17;20.37;;;8.23;;
5117;SDS011;2578;51.622;7.046;2023-02-01T15:57:43;15.30;;;7.60;;
5117;SDS011;2578;51.622;7.046;2023-02-01T16:00:23;10.93;;;7.60;;
5117;SDS011;2578;51.622;7.046;2023-02-01T16:02:58;6.50;;;6.00;;
5117;SDS011;2578;51.622;7.046;2023-02-01T16:05:33;9.73;;;7.33;;
5117;SDS011;2578;51.622;7.046;2023-02-01T16:10:37;6.57;;;6.07;;
5117;SDS011;2578;51.622;7.046;2023-02-01T16:13:05;7.63;;;6.90;;
5117;SDS011;2578;51.622;7.046;2023-02-01T16:15:30;9.40;;;6.90;;
5117;SDS011;2578;51.622;7.046;2023-02-01T16:17:56;6.77;;;6.13;;
5117;SDS011;2578;51.622;7.046;2023-02-01T16:20:22;28.03;;;8.87;;
5117;SDS011;2578;51.622;7.046;2023-02-01T16:22:47;11.73;;;7.57;;
5117;SDS011;2578;51.622;7.046;2023-02-01T16:25:13;8.87;;;7.80;;
5117;SDS011;2578;51.622;7.046;2023-02-01T16:27:38;7.83;;;6.60;;
5117;SDS011;2578;51.622;7.046;2023-02-01T16:30:04;19.80;;;8.43;;
5117;SDS011;2578;51.622;7.046;2023-02-01T16:32:30;16.70;;;9.90;;
5117;SDS011;2578;51.622;7.046;2023-02-01T16:34:56;8.60;;;7.90;;
5117;SDS011;2578;51.622;7.046;2023-02-01T16:37:23;4.70;;;4.30;;
5117;SDS011;2578;51.622;7.046;2023-02-01T16:39:50;5.40;;;4.90;;
5117;SDS011;2578;51.622;7.046;2023-02-01T16:42:16;8.07;;;7.27;;
5117;SDS011;2578;51.622;7.046;2023-02-01T16:44:42;10.93;;;9.60;;
5117;SDS011;2578;51.622;7.046;2023-02-01T16:47:12;25.07;;;15.60;;
5117;SDS011;2578;51.622;7.046;2023-02-01T16:49:42;16.07;;;14.57;;
5117;SDS011;2578;51.622;7.046;2023-02-01T16:52:11;15.23;;;14.00;;
5117;SDS011;2578;51.622;7.046;2023-02-01T16:54:41;20.63;;;13.87;;
5117;SDS011;2578;51.622;7.046;2023-02-01T16:57:10;27.63;;;16.13;;
5117;SDS011;2578;51.622;7.046;2023-02-01T16:59:37;13.23;;;12.33;;
5117;SDS011;2578;51.622;7.046;2023-02-01T17:02:03;12.77;;;11.73;;
5117;SDS011;2578;51.622;7.046;2023-02-01T17:04:28;15.97;;;13.57;;
5117;SDS011;2578;51.622;7.046;2023-02-01T17:06:54;13.63;;;12.53;;
5117;SDS011;2578;51.622;7.046;2023-02-01T17:09:20;13.00;;;11.87;;
5117;SDS011;2578;51.622;7.046;2023-02-01T17:11:45;14.50;;;13.10;;
5117;SDS011;2578;51.622;7.046;2023-02-01T17:14:15;12.80;;;11.73;;
5117;SDS011;2578;51.622;7.046;2023-02-01T17:16:44;11.80;;;10.90;;
5117;SDS011;2578;51.622;7.046;2023-02-01T17:19:12;13.20;;;12.00;;
5117;SDS011;2578;51.622;7.046;2023-02-01T17:21:49;11.20;;;10.50;;
5117;SDS011;2578;51.622;7.046;2023-02-01T17:24:20;11.20;;;10.40;;
5117;SDS011;2578;51.622;7.046;2023-02-01T17:26:48;12.07;;;10.90;;
5117;SDS011;2578;51.622;7.046;2023-02-01T17:29:15;11.17;;;10.17;;
5117;SDS011;2578;51.622;7.046;2023-02-01T17:31:43;10.27;;;9.57;;
5117;SDS011;2578;51.622;7.046;2023-02-01T17:34:10;10.53;;;9.83;;
5117;SDS011;2578;51.622;7.046;2023-02-01T17:36:39;9.10;;;8.50;;
5117;SDS011;2578;51.622;7.046;2023-02-01T17:39:05;9.17;;;8.57;;
5117;SDS011;2578;51.622;7.046;2023-02-01T17:41:31;13.50;;;9.43;;
5117;SDS011;2578;51.622;7.046;2023-02-01T17:43:57;9.50;;;8.60;;
5117;SDS011;2578;51.622;7.046;2023-02-01T17:46:23;9.20;;;8.40;;
5117;SDS011;2578;51.622;7.046;2023-02-01T17:48:54;10.50;;;9.50;;
5117;SDS011;2578;51.622;7.046;2023-02-01T17:51:20;37.07;;;12.37;;
5117;SDS011;2578;51.622;7.046;2023-02-01T17:53:48;14.20;;;10.40;;
5117;SDS011;2578;51.622;7.046;2023-02-01T17:56:17;11.20;;;10.20;;
5117;SDS011;2578;51.622;7.046;2023-02-01T17:58:45;9.97;;;8.63;;
5117;SDS011;2578;51.622;7.046;2023-02-01T18:01:12;11.13;;;10.03;;
5117;SDS011;2578;51.622;7.046;2023-02-01T18:03:40;13.30;;;10.70;;
5117;SDS011;2578;51.622;7.046;2023-02-01T18:06:10;18.80;;;13.43;;
5117;SDS011;2578;51.622;7.046;2023-02-01T18:08:38;10.07;;;9.47;;
5117;SDS011;2578;51.622;7.046;2023-02-01T18:11:04;14.77;;;13.40;;
5117;SDS011;2578;51.622;7.046;2023-02-01T18:13:33;9.80;;;9.20;;
5117;SDS011;2578;51.622;7.046;2023-02-01T18:15:59;8.20;;;7.70;;
5117;SDS011;2578;51.622;7.046;2023-02-01T18:18:26;7.30;;;6.80;;
5117;SDS011;2578;51.622;7.046;2023-02-01T18:20:54;6.70;;;6.20;;
5117;SDS011;2578;51.622;7.046;2023-02-01T18:23:21;7.43;;;6.93;;
5117;SDS011;2578;51.622;7.046;2023-02-01T18:25:48;6.90;;;6.40;;
5117;SDS011;2578;51.622;7.046;2023-02-01T18:28:15;19.53;;;10.70;;
5117;SDS011;2578;51.622;7.046;2023-02-01T18:30:51;9.27;;;8.43;;
5117;SDS011;2578;51.622;7.046;2023-02-01T18:33:17;8.60;;;8.00;;
5117;SDS011;2578;51.622;7.046;2023-02-01T18:35:44;8.10;;;7.60;;
5117;SDS011;2578;51.622;7.046;2023-02-01T18:38:10;8.03;;;7.53;;
5117;SDS011;2578;51.622;7.046;2023-02-01T18:40:38;7.90;;;7.40;;